Arkdale, Wisconsin
Current Conditions -  °F | °C
As of 1:58 AM on Sunday 23 Nov 2014 (Local Time) from KVOK Reporting Station
Broken Clouds Broken Clouds  
Wind Chill: 52°   Ceiling: 1300
Heat Index: 52°   Visibility: 10mi
Dew Point: 52°   Wind: 10mph
Humidity: 100%   Direction: 180°S
Pressure: 29.61"   Gusts: NA
Location:  44.03°N, 89.89°W
Report Text: KVOK 230758Z AUTO 18009KT 10SM BKN013 11/11 A2961 RMK AO2 SLP034 T01100110
Loading
Personal Weather Stations






























Interactive Weather Map New forecast layout! Learn more

10-Day Weather Forecast

Advertisements
Track Severe Weather on mobile